Time;durP1;ratioP1;P1;durP2;ratioP2;P2;SDS_P1;SDS_P2;PMS_P1;PMS_P2;Temp;Humidity;BMP_temperature;BMP_pressure;BME280_temperature;BME280_humidity;BME280_pressure;Samples;Min_cycle;Max_cycle;Signal;HPM_P1;HPM_P2
2023/10/21 00:01:32;;;;;;;1.73;1.00;;;24.50;63.00;;;;;;5068472;28;20543;-70
2023/10/21 00:04:01;;;;;;;0.80;0.80;;;24.50;63.10;;;;;;5056561;28;20455;-70
2023/10/21 00:06:29;;;;;;;0.80;0.80;;;24.50;63.00;;;;;;5054954;28;20954;-70
2023/10/21 00:08:57;;;;;;;0.70;0.70;;;24.50;63.00;;;;;;5052312;28;20461;-70
2023/10/21 00:11:27;;;;;;;0.80;0.80;;;24.50;63.00;;;;;;5039363;28;21034;-70
2023/10/21 00:13:55;;;;;;;0.90;0.90;;;24.50;63.10;;;;;;5038467;28;20505;-70
2023/10/21 00:16:23;;;;;;;0.93;0.93;;;24.50;63.10;;;;;;5039496;28;20560;-70
2023/10/21 00:18:51;;;;;;;1.00;0.90;;;24.50;63.10;;;;;;5043601;28;20956;-70
2023/10/21 00:21:19;;;;;;;1.10;1.10;;;24.50;63.10;;;;;;5044260;28;20466;-70
2023/10/21 00:23:48;;;;;;;0.80;0.80;;;24.50;63.10;;;;;;5035504;28;20552;-70
2023/10/21 00:26:17;;;;;;;0.80;0.80;;;24.50;63.10;;;;;;5049165;28;21344;-70
2023/10/21 00:28:53;;;;;;;0.77;0.77;;;24.50;63.10;;;;;;5047398;28;20454;-70
2023/10/21 00:31:21;;;;;;;1.90;1.00;;;24.50;63.10;;;;;;5045196;28;20448;-70
2023/10/21 00:33:49;;;;;;;0.90;0.90;;;24.50;63.10;;;;;;5051619;28;20541;-70
2023/10/21 00:36:17;;;;;;;0.83;0.83;;;24.50;63.10;;;;;;5050795;28;20481;-70
2023/10/21 00:38:45;;;;;;;0.90;0.90;;;24.50;63.10;;;;;;5059750;28;20469;-70
2023/10/21 00:41:14;;;;;;;0.90;0.90;;;24.50;63.10;;;;;;5052789;28;20494;-70
2023/10/21 00:43:42;;;;;;;1.03;0.93;;;24.40;63.10;;;;;;5051052;28;20947;-70
2023/10/21 00:46:15;;;;;;;0.90;0.90;;;24.40;63.10;;;;;;5058061;28;20464;-70
2023/10/21 00:48:44;;;;;;;0.83;0.83;;;24.40;63.10;;;;;;5040384;28;20799;-71
2023/10/21 00:51:12;;;;;;;0.70;0.70;;;24.40;63.10;;;;;;5055449;28;20465;-70
2023/10/21 00:53:41;;;;;;;1.23;1.03;;;24.40;63.10;;;;;;5046308;28;20446;-70
2023/10/21 00:56:09;;;;;;;1.10;1.10;;;24.40;63.10;;;;;;5046093;28;20574;-70
2023/10/21 00:58:38;;;;;;;1.10;0.90;;;24.40;63.10;;;;;;5045936;28;20455;-70
2023/10/21 01:01:08;;;;;;;1.70;1.23;;;24.40;63.20;;;;;;5054869;28;20498;-70
2023/10/21 01:03:38;;;;;;;0.83;0.83;;;24.40;63.20;;;;;;5051730;28;20457;-70
2023/10/21 01:06:07;;;;;;;0.93;0.93;;;24.40;63.20;;;;;;5047440;28;21012;-70
2023/10/21 01:08:42;;;;;;;0.87;0.70;;;24.40;63.20;;;;;;5048349;28;20465;-70
2023/10/21 01:11:10;;;;;;;1.33;1.17;;;24.30;63.20;;;;;;5055422;28;20454;-70
2023/10/21 01:13:39;;;;;;;1.00;0.90;;;24.40;63.20;;;;;;5041923;28;20539;-69
2023/10/21 01:16:07;;;;;;;0.67;0.60;;;24.30;63.20;;;;;;5039832;28;20549;-70
2023/10/21 01:18:38;;;;;;;1.10;1.00;;;24.30;63.20;;;;;;5045265;28;20451;-70
2023/10/21 01:21:06;;;;;;;1.20;1.10;;;24.30;63.20;;;;;;5047742;28;20539;-70
2023/10/21 01:23:36;;;;;;;0.90;0.73;;;24.30;63.30;;;;;;5048217;28;20875;-70
2023/10/21 01:26:05;;;;;;;0.90;0.90;;;24.30;63.30;;;;;;5036519;28;20464;-70
2023/10/21 01:28:33;;;;;;;0.70;0.70;;;24.30;63.30;;;;;;5041411;28;20451;-70
2023/10/21 01:31:02;;;;;;;0.83;0.77;;;24.30;63.20;;;;;;5043548;28;20469;-70
2023/10/21 01:33:30;;;;;;;0.97;0.97;;;24.30;63.30;;;;;;5054621;28;20504;-70
2023/10/21 01:35:59;;;;;;;0.90;0.80;;;24.20;63.30;;;;;;5049320;28;20488;-70
2023/10/21 01:38:28;;;;;;;0.90;0.90;;;24.20;63.30;;;;;;5049895;28;20789;-70
2023/10/21 01:40:57;;;;;;;1.30;1.00;;;24.20;63.30;;;;;;5046437;28;20957;-70
2023/10/21 01:43:27;;;;;;;0.80;0.80;;;24.20;63.30;;;;;;5063744;28;20538;-70
2023/10/21 01:45:56;;;;;;;1.37;0.93;;;24.20;63.30;;;;;;5048645;28;20447;-69
2023/10/21 01:48:24;;;;;;;0.83;0.80;;;24.20;63.30;;;;;;5050630;28;20497;-70
2023/10/21 01:51:00;;;;;;;1.13;0.67;;;24.20;63.30;;;;;;5052303;28;20469;-70
2023/10/21 01:53:29;;;;;;;0.90;0.90;;;24.20;63.40;;;;;;5037634;28;20447;-69
2023/10/21 01:56:01;;;;;;;1.00;0.90;;;24.20;63.40;;;;;;5044205;28;20983;-70
2023/10/21 01:58:31;;;;;;;0.97;0.63;;;24.10;63.40;;;;;;5045528;28;20453;-70
2023/10/21 02:00:59;;;;;;;0.70;0.70;;;24.10;63.40;;;;;;5039716;28;20575;-70
2023/10/21 02:03:28;;;;;;;0.87;0.70;;;24.10;63.40;;;;;;5037118;28;21008;-69
2023/10/21 02:05:56;;;;;;;1.03;0.90;;;24.10;63.40;;;;;;5042943;28;20454;-69
2023/10/21 02:08:25;;;;;;;0.90;0.90;;;24.10;63.40;;;;;;5049661;28;21044;-70
2023/10/21 02:10:53;;;;;;;1.00;0.90;;;24.10;63.40;;;;;;5053221;28;20463;-70
2023/10/21 02:13:23;;;;;;;1.57;0.93;;;24.10;63.40;;;;;;5046913;28;20531;-70
2023/10/21 02:15:51;;;;;;;1.30;1.20;;;24.10;63.40;;;;;;5048330;28;20465;-70
2023/10/21 02:18:19;;;;;;;0.83;0.83;;;24.10;63.50;;;;;;5050419;28;20507;-70
2023/10/21 02:20:48;;;;;;;1.13;1.00;;;24.10;63.50;;;;;;5052012;28;20459;-70
2023/10/21 02:23:16;;;;;;;1.00;0.93;;;24.10;63.50;;;;;;5033140;28;20487;-70
2023/10/21 02:25:44;;;;;;;1.03;0.70;;;24.10;63.50;;;;;;5048037;28;20448;-70
2023/10/21 02:28:12;;;;;;;0.63;0.63;;;24.00;63.50;;;;;;5048609;28;20841;-70
2023/10/21 02:30:42;;;;;;;0.83;0.83;;;24.00;63.50;;;;;;5054017;28;20483;-70
2023/10/21 02:33:11;;;;;;;0.87;0.87;;;24.00;63.50;;;;;;5046570;28;20918;-70
2023/10/21 02:35:42;;;;;;;1.60;1.00;;;24.00;63.50;;;;;;5047978;28;20833;-70
2023/10/21 02:38:12;;;;;;;0.70;0.70;;;24.00;63.60;;;;;;5053392;28;20475;-70
2023/10/21 02:40:42;;;;;;;0.87;0.87;;;24.00;63.60;;;;;;5049702;28;20459;-70
2023/10/21 02:43:11;;;;;;;1.00;1.00;;;24.00;63.60;;;;;;5047991;28;20501;-70
2023/10/21 02:45:39;;;;;;;0.80;0.80;;;24.00;63.70;;;;;;5080534;28;20468;-70
2023/10/21 02:48:09;;;;;;;0.73;0.70;;;24.00;63.70;;;;;;5045017;28;20611;-70
2023/10/21 02:50:38;;;;;;;1.90;0.83;;;24.00;63.70;;;;;;5056798;28;20470;-70
2023/10/21 02:53:07;;;;;;;0.83;0.83;;;24.00;63.70;;;;;;5047403;28;20452;-70
2023/10/21 02:55:36;;;;;;;0.70;0.70;;;24.00;63.70;;;;;;5043602;28;20447;-69
2023/10/21 02:58:04;;;;;;;2.53;0.80;;;23.90;63.70;;;;;;5048201;28;20469;-70
2023/10/21 03:00:32;;;;;;;0.73;0.73;;;23.90;63.70;;;;;;5046937;28;20962;-70
2023/10/21 03:03:00;;;;;;;0.97;0.97;;;23.90;63.70;;;;;;5051987;28;20462;-70
2023/10/21 03:05:30;;;;;;;0.80;0.80;;;23.90;63.70;;;;;;5042056;28;20514;-70
2023/10/21 03:07:58;;;;;;;1.00;0.80;;;23.90;63.70;;;;;;5051803;28;20462;-70
2023/10/21 03:10:26;;;;;;;0.50;0.50;;;23.90;63.70;;;;;;5053314;28;20857;-70
2023/10/21 03:12:54;;;;;;;0.90;0.90;;;23.90;63.70;;;;;;5035319;28;20928;-70
2023/10/21 03:15:22;;;;;;;1.00;0.90;;;23.90;63.70;;;;;;5050641;28;20452;-70
2023/10/21 03:17:51;;;;;;;0.80;0.80;;;23.90;63.70;;;;;;5052774;28;20475;-70
2023/10/21 03:20:19;;;;;;;0.80;0.80;;;23.90;63.80;;;;;;5051009;28;20447;-70
2023/10/21 03:22:51;;;;;;;0.80;0.80;;;23.80;63.80;;;;;;5046696;28;20906;-70
2023/10/21 03:25:19;;;;;;;0.70;0.60;;;23.80;63.70;;;;;;5040567;28;20525;-70
2023/10/21 03:27:47;;;;;;;0.80;0.80;;;23.80;63.80;;;;;;5053229;28;20452;-70
2023/10/21 03:30:16;;;;;;;0.70;0.70;;;23.80;63.80;;;;;;5049385;28;20460;-69
2023/10/21 03:32:44;;;;;;;0.80;0.60;;;23.80;63.80;;;;;;5051593;28;20462;-70
2023/10/21 03:35:13;;;;;;;1.00;1.00;;;23.80;63.80;;;;;;5050065;28;20466;-69
2023/10/21 03:37:41;;;;;;;0.83;0.83;;;23.80;63.80;;;;;;5040021;28;20472;-69
2023/10/21 03:40:12;;;;;;;0.60;0.60;;;23.80;63.80;;;;;;5053235;28;20466;-69
2023/10/21 03:42:40;;;;;;;0.80;0.60;;;23.80;63.80;;;;;;5046859;28;20487;-69
2023/10/21 03:45:09;;;;;;;0.80;0.80;;;23.80;63.80;;;;;;5042373;28;20455;-69
2023/10/21 03:47:38;;;;;;;0.70;0.70;;;23.80;63.80;;;;;;5051866;28;20452;-69
2023/10/21 03:50:07;;;;;;;0.73;0.73;;;23.80;63.80;;;;;;5056737;28;20450;-69
2023/10/21 03:52:35;;;;;;;0.73;0.73;;;23.70;63.90;;;;;;5053288;28;20557;-69
2023/10/21 03:55:04;;;;;;;0.70;0.70;;;23.70;63.90;;;;;;5037345;28;20534;-70
2023/10/21 03:57:34;;;;;;;0.70;0.70;;;23.70;63.90;;;;;;5046934;28;20471;-70
2023/10/21 04:00:04;;;;;;;0.60;0.60;;;23.70;63.90;;;;;;5058572;28;20458;-69
2023/10/21 04:02:38;;;;;;;0.80;0.80;;;23.80;63.90;;;;;;5057169;28;20540;-69
2023/10/21 04:05:08;;;;;;;0.70;0.70;;;23.80;63.90;;;;;;5046123;28;20455;-70
2023/10/21 04:07:36;;;;;;;0.83;0.80;;;23.80;64.00;;;;;;5045798;28;20458;-69
2023/10/21 04:10:04;;;;;;;0.80;0.80;;;23.80;63.80;;;;;;5042291;28;20454;-69
2023/10/21 04:12:34;;;;;;;1.07;1.07;;;23.90;63.90;;;;;;5041337;28;21046;-69
2023/10/21 04:15:02;;;;;;;1.00;1.00;;;23.90;63.80;;;;;;5049422;28;20450;-69
2023/10/21 04:17:31;;;;;;;0.80;0.80;;;24.00;63.70;;;;;;5039593;28;20484;-70
2023/10/21 04:20:00;;;;;;;0.90;0.90;;;24.00;63.50;;;;;;5041699;28;20459;-70
2023/10/21 04:22:28;;;;;;;0.70;0.70;;;24.10;63.70;;;;;;5044470;28;20457;-69
2023/10/21 04:24:56;;;;;;;0.80;0.80;;;24.10;63.80;;;;;;5043285;28;20462;-70
2023/10/21 04:27:26;;;;;;;0.60;0.60;;;24.20;63.70;;;;;;5043982;28;20504;-70
2023/10/21 04:29:55;;;;;;;0.83;0.83;;;24.30;63.60;;;;;;5042845;28;20476;-70
2023/10/21 04:32:24;;;;;;;0.53;0.53;;;24.40;63.60;;;;;;5040938;28;20449;-70
2023/10/21 04:34:56;;;;;;;0.67;0.67;;;24.40;63.40;;;;;;5042582;28;20452;-69
2023/10/21 04:37:24;;;;;;;0.80;0.80;;;24.50;63.40;;;;;;5042291;28;20457;-70
2023/10/21 04:39:53;;;;;;;0.60;0.60;;;24.60;63.20;;;;;;5046214;28;20463;-70
2023/10/21 04:42:21;;;;;;;0.97;0.90;;;24.60;63.10;;;;;;5039453;28;20465;-70
2023/10/21 04:44:49;;;;;;;0.87;0.87;;;24.70;63.00;;;;;;5039256;28;20455;-70
2023/10/21 04:47:19;;;;;;;0.80;0.60;;;24.70;62.90;;;;;;5040758;28;20469;-69
2023/10/21 04:49:47;;;;;;;0.80;0.80;;;24.80;62.80;;;;;;5042668;28;20459;-70
2023/10/21 04:52:17;;;;;;;0.80;0.70;;;24.80;62.70;;;;;;5048728;28;20455;-70
2023/10/21 04:54:45;;;;;;;0.97;0.97;;;24.80;62.60;;;;;;5044765;28;20506;-70
2023/10/21 04:57:16;;;;;;;0.60;0.60;;;24.80;62.60;;;;;;5043646;28;20501;-70
2023/10/21 04:59:45;;;;;;;0.60;0.60;;;24.70;62.60;;;;;;5039617;28;21174;-70
2023/10/21 05:02:13;;;;;;;0.87;0.70;;;24.70;62.70;;;;;;5035871;28;20491;-70
2023/10/21 05:04:42;;;;;;;0.60;0.60;;;24.70;62.70;;;;;;5042670;28;20454;-70
2023/10/21 05:07:11;;;;;;;0.70;0.57;;;24.60;62.80;;;;;;5043631;28;20467;-70
2023/10/21 05:09:39;;;;;;;0.87;0.70;;;24.60;62.80;;;;;;5056769;28;20458;-70
2023/10/21 05:12:10;;;;;;;1.10;0.90;;;24.60;62.80;;;;;;5053649;28;20520;-69
2023/10/21 05:14:38;;;;;;;0.80;0.80;;;24.50;62.90;;;;;;5043991;28;20459;-70
2023/10/21 05:17:06;;;;;;;0.80;0.80;;;24.50;62.90;;;;;;5039240;28;20940;-70
2023/10/21 05:19:37;;;;;;;0.60;0.60;;;24.50;62.90;;;;;;5036705;28;20483;-70
2023/10/21 05:22:07;;;;;;;0.90;0.77;;;24.40;63.00;;;;;;5035628;28;20509;-70
2023/10/21 05:24:35;;;;;;;0.63;0.63;;;24.40;63.00;;;;;;5039986;28;20974;-70
2023/10/21 05:27:04;;;;;;;0.70;0.70;;;24.40;63.10;;;;;;5045020;28;20861;-69
2023/10/21 05:29:32;;;;;;;0.83;0.83;;;24.40;63.10;;;;;;5040297;28;20458;-72
2023/10/21 05:32:01;;;;;;;0.60;0.60;;;24.30;63.10;;;;;;5038692;28;20454;-72
2023/10/21 05:34:29;;;;;;;0.60;0.60;;;24.30;63.20;;;;;;5039298;28;20463;-70
2023/10/21 05:36:58;;;;;;;0.67;0.67;;;24.30;63.20;;;;;;5039821;28;20457;-70
2023/10/21 05:39:27;;;;;;;0.87;0.80;;;24.30;63.30;;;;;;5047330;28;20889;-70
2023/10/21 05:41:55;;;;;;;0.67;0.67;;;24.30;63.30;;;;;;5050789;28;20449;-70
2023/10/21 05:44:24;;;;;;;0.70;0.70;;;24.30;63.40;;;;;;5048569;28;20454;-70
2023/10/21 05:47:12;;;;;;;0.67;0.67;;;24.30;63.40;;;;;;5048488;28;20461;-72
2023/10/21 05:49:40;;;;;;;0.40;0.40;;;24.30;63.40;;;;;;5048285;28;21326;-70
2023/10/21 05:52:08;;;;;;;0.70;0.70;;;24.30;63.40;;;;;;5043349;28;20465;-71
2023/10/21 05:54:38;;;;;;;0.83;0.80;;;24.30;63.40;;;;;;5033914;28;20454;-71
2023/10/21 05:57:06;;;;;;;0.80;0.80;;;24.30;63.40;;;;;;5037787;28;20456;-71
2023/10/21 05:59:34;;;;;;;0.70;0.70;;;24.30;63.40;;;;;;5047215;28;20442;-76
2023/10/21 06:02:02;;;;;;;1.10;0.93;;;24.30;63.70;;;;;;5043069;28;20233;-74
2023/10/21 06:04:31;;;;;;;3.27;1.47;;;24.30;63.90;;;;;;5042590;28;20462;-74
2023/10/21 06:07:00;;;;;;;1.63;1.07;;;24.30;63.80;;;;;;5055979;28;20457;-74
2023/10/21 06:09:28;;;;;;;3.67;1.37;;;24.30;63.80;;;;;;5041714;28;20488;-74
2023/10/21 06:11:59;;;;;;;3.20;1.33;;;24.30;63.90;;;;;;5032688;28;20457;-75
2023/10/21 06:14:27;;;;;;;1.83;1.50;;;24.20;63.90;;;;;;5038818;28;20452;-74
2023/10/21 06:16:55;;;;;;;3.30;1.93;;;24.20;63.90;;;;;;5044779;28;20457;-74
2023/10/21 06:19:24;;;;;;;2.20;1.30;;;24.20;64.00;;;;;;5033523;28;20518;-74
2023/10/21 06:21:52;;;;;;;2.73;1.83;;;24.20;63.90;;;;;;5044691;28;20562;-74
2023/10/21 06:24:21;;;;;;;3.60;1.37;;;24.20;63.90;;;;;;5037728;28;20460;-74
2023/10/21 06:26:49;;;;;;;5.37;1.70;;;24.20;63.80;;;;;;5033943;28;20453;-74
2023/10/21 06:29:19;;;;;;;1.67;1.43;;;24.20;63.80;;;;;;5042513;28;20452;-74
2023/10/21 06:31:47;;;;;;;6.10;2.00;;;24.20;63.70;;;;;;5040054;28;20457;-74
2023/10/21 06:34:15;;;;;;;2.63;1.57;;;24.20;63.70;;;;;;5041342;28;20509;-74
2023/10/21 06:36:43;;;;;;;5.17;2.00;;;24.20;63.70;;;;;;5045707;28;20469;-74
2023/10/21 06:39:11;;;;;;;1.40;1.30;;;24.10;63.70;;;;;;5044246;28;20535;-73
2023/10/21 06:41:39;;;;;;;3.73;1.43;;;24.10;63.70;;;;;;5049349;28;20465;-73
2023/10/21 06:44:08;;;;;;;3.47;1.67;;;24.10;63.70;;;;;;5040547;28;20507;-77
2023/10/21 06:46:38;;;;;;;4.60;1.67;;;24.10;63.70;;;;;;5049871;28;20462;-78
2023/10/21 06:49:07;;;;;;;4.10;1.97;;;24.10;63.70;;;;;;5053576;28;20974;-78
2023/10/21 06:51:35;;;;;;;3.83;1.87;;;24.10;63.70;;;;;;5048343;28;20454;-78
2023/10/21 06:54:05;;;;;;;3.87;1.93;;;24.10;63.70;;;;;;5041975;28;20463;-78
2023/10/21 06:56:35;;;;;;;1.77;1.50;;;24.10;63.70;;;;;;5047725;28;20487;-78
2023/10/21 06:59:03;;;;;;;1.80;1.70;;;24.00;63.70;;;;;;5048208;28;20480;-75
2023/10/21 07:01:32;;;;;;;5.13;1.70;;;24.00;63.80;;;;;;5041115;28;20494;-75
2023/10/21 07:04:03;;;;;;;8.80;1.60;;;24.00;63.80;;;;;;5044700;28;20459;-74
2023/10/21 07:06:31;;;;;;;3.93;1.70;;;24.00;64.00;;;;;;5049097;28;20452;-73
2023/10/21 07:08:59;;;;;;;3.90;1.83;;;24.00;64.00;;;;;;5047338;28;21309;-73
2023/10/21 07:11:28;;;;;;;2.73;1.43;;;24.00;64.00;;;;;;5043908;28;20448;-74
2023/10/21 07:13:56;;;;;;;4.10;2.47;;;24.00;64.00;;;;;;5047340;28;20456;-74
2023/10/21 07:16:24;;;;;;;2.60;1.60;;;24.00;64.10;;;;;;5038146;28;20463;-75
2023/10/21 07:18:52;;;;;;;2.73;1.57;;;24.00;64.20;;;;;;5049480;28;20469;-76
2023/10/21 07:21:22;;;;;;;1.43;1.33;;;24.00;64.60;;;;;;5040844;28;20460;-75
2023/10/21 07:23:50;;;;;;;1.50;1.40;;;24.00;64.60;;;;;;5043740;28;20451;-74
2023/10/21 07:26:19;;;;;;;7.93;1.50;;;24.00;64.60;;;;;;5046751;28;20453;-74
2023/10/21 07:28:47;;;;;;;2.60;1.40;;;24.00;64.60;;;;;;5041890;28;20459;-75
2023/10/21 07:31:15;;;;;;;2.27;1.37;;;24.00;64.40;;;;;;5046974;28;20453;-75
2023/10/21 07:33:44;;;;;;;2.73;1.63;;;24.00;64.40;;;;;;5053226;28;20436;-75
2023/10/21 07:36:12;;;;;;;2.17;1.70;;;24.00;64.30;;;;;;5046634;28;20461;-74
2023/10/21 07:38:42;;;;;;;3.07;1.57;;;24.10;64.20;;;;;;5040801;28;20466;-75
2023/10/21 07:41:11;;;;;;;3.17;1.70;;;24.10;64.20;;;;;;5043123;28;20472;-74
2023/10/21 07:43:39;;;;;;;4.37;1.97;;;24.10;64.10;;;;;;5040476;28;21037;-75
2023/10/21 07:46:08;;;;;;;2.50;1.73;;;24.10;64.00;;;;;;5047337;28;20451;-75
2023/10/21 07:48:36;;;;;;;1.30;1.20;;;24.10;64.00;;;;;;5045517;28;20453;-76
2023/10/21 07:51:05;;;;;;;2.30;2.10;;;24.10;63.90;;;;;;5045676;28;20461;-76
2023/10/21 07:53:34;;;;;;;2.87;1.37;;;24.10;63.90;;;;;;5044959;28;20525;-76
2023/10/21 07:56:04;;;;;;;2.67;1.60;;;24.10;63.90;;;;;;5047245;28;20991;-76
2023/10/21 07:58:32;;;;;;;4.93;1.77;;;24.10;63.90;;;;;;5045456;28;20507;-76
2023/10/21 08:01:01;;;;;;;5.77;1.73;;;24.10;63.80;;;;;;5044630;28;20492;-76
2023/10/21 08:03:34;;;;;;;1.80;1.23;;;24.10;63.80;;;;;;5077564;28;20459;-76
2023/10/21 08:06:03;;;;;;;2.40;1.73;;;24.10;63.80;;;;;;5041167;28;20584;-76
2023/10/21 08:08:31;;;;;;;3.10;1.20;;;24.10;63.80;;;;;;5041039;28;20493;-76
2023/10/21 08:11:02;;;;;;;2.10;1.90;;;24.10;63.80;;;;;;5048599;28;20451;-76
2023/10/21 08:13:32;;;;;;;3.30;1.67;;;24.10;63.80;;;;;;5046383;28;20473;-76
2023/10/21 08:16:00;;;;;;;1.70;1.60;;;24.10;63.80;;;;;;5040435;28;20518;-76
2023/10/21 08:18:29;;;;;;;8.10;1.60;;;24.10;63.80;;;;;;5040558;28;20566;-76
2023/10/21 08:20:57;;;;;;;2.77;1.20;;;24.10;63.80;;;;;;5040826;28;20490;-76
2023/10/21 08:23:25;;;;;;;2.10;1.87;;;24.10;63.80;;;;;;5044755;28;20456;-76
2023/10/21 08:25:55;;;;;;;4.23;1.50;;;24.10;63.80;;;;;;5047124;28;20469;-76
2023/10/21 08:28:23;;;;;;;1.97;1.47;;;24.10;63.80;;;;;;5053038;28;20964;-76
2023/10/21 08:30:53;;;;;;;3.37;1.63;;;24.10;63.80;;;;;;5052022;28;20477;-76
2023/10/21 08:33:21;;;;;;;1.97;1.30;;;24.10;63.80;;;;;;5051778;28;20460;-76
2023/10/21 08:35:49;;;;;;;3.57;2.90;;;24.10;63.80;;;;;;5048995;28;20479;-76
2023/10/21 08:38:17;;;;;;;1.97;1.80;;;24.10;63.90;;;;;;5057345;28;20839;-76
2023/10/21 08:40:46;;;;;;;2.90;1.33;;;24.10;63.80;;;;;;5046666;28;20523;-76
2023/10/21 08:43:18;;;;;;;1.73;1.63;;;24.10;63.80;;;;;;5051737;28;21012;-76
2023/10/21 08:45:47;;;;;;;4.13;1.93;;;24.10;63.90;;;;;;5046872;28;20459;-76
2023/10/21 08:48:17;;;;;;;1.60;1.50;;;24.10;63.80;;;;;;5054301;28;20475;-76
2023/10/21 08:50:49;;;;;;;5.77;1.60;;;24.20;63.90;;;;;;5058960;28;20456;-76
2023/10/21 08:53:17;;;;;;;2.60;1.57;;;24.20;63.80;;;;;;5048129;28;20553;-76
2023/10/21 08:55:46;;;;;;;3.17;1.37;;;24.20;63.80;;;;;;5057263;28;20485;-76
2023/10/21 08:58:15;;;;;;;3.10;1.43;;;24.20;63.80;;;;;;5052214;28;20450;-76
2023/10/21 09:00:44;;;;;;;2.07;1.10;;;24.20;63.70;;;;;;5048905;28;20823;-76
2023/10/21 09:03:14;;;;;;;2.17;1.73;;;24.20;63.60;;;;;;5041845;28;20466;-76
2023/10/21 09:06:10;;;;;;;1.27;1.17;;;24.20;63.60;;;;;;5042367;28;20552;-76
2023/10/21 09:08:41;;;;;;;2.67;1.60;;;24.20;63.50;;;;;;5050799;28;20525;-76
2023/10/21 09:11:11;;;;;;;2.30;1.20;;;24.20;63.40;;;;;;5049259;28;20455;-76
2023/10/21 09:13:41;;;;;;;2.00;1.47;;;24.20;63.50;;;;;;5050101;28;20466;-76
2023/10/21 09:16:23;;;;;;;1.53;1.43;;;24.20;63.40;;;;;;5047194;28;20462;-76
2023/10/21 09:19:00;;;;;;;1.30;1.20;;;24.20;63.50;;;;;;5051284;28;20447;-76
2023/10/21 09:21:37;;;;;;;1.17;1.07;;;24.20;63.50;;;;;;5041469;28;20981;-76
2023/10/21 09:24:09;;;;;;;2.07;1.43;;;24.20;63.60;;;;;;5050312;28;20486;-76
2023/10/21 09:26:41;;;;;;;4.20;1.87;;;24.20;63.60;;;;;;5040441;28;20500;-76
2023/10/21 09:29:11;;;;;;;3.67;1.47;;;24.10;63.50;;;;;;5048208;28;20448;-76
2023/10/21 09:31:47;;;;;;;1.50;1.23;;;24.10;63.60;;;;;;5049680;28;20466;-76
2023/10/21 09:34:25;;;;;;;1.00;1.00;;;24.10;63.60;;;;;;5048431;28;20469;-76
2023/10/21 09:37:01;;;;;;;2.10;1.20;;;24.10;63.60;;;;;;5051416;28;20458;-75
2023/10/21 09:39:32;;;;;;;1.23;1.13;;;24.10;63.60;;;;;;5050669;28;20525;-75
2023/10/21 09:42:02;;;;;;;1.27;1.20;;;24.10;63.70;;;;;;5049367;28;20480;-76
2023/10/21 09:44:31;;;;;;;3.10;1.10;;;24.10;63.70;;;;;;5043825;28;20495;-76
2023/10/21 09:47:01;;;;;;;2.50;1.20;;;24.10;63.70;;;;;;5050360;28;20459;-76
2023/10/21 09:49:30;;;;;;;1.57;1.47;;;24.10;63.80;;;;;;5040798;28;20459;-76
2023/10/21 09:52:04;;;;;;;1.60;1.50;;;24.10;63.70;;;;;;5037377;28;20439;-76
2023/10/21 09:54:41;;;;;;;1.70;1.37;;;24.10;63.90;;;;;;5040123;28;20478;-76
2023/10/21 09:57:11;;;;;;;2.77;1.40;;;24.10;63.90;;;;;;5049097;28;20924;-76
2023/10/21 09:59:40;;;;;;;2.63;1.20;;;24.20;63.90;;;;;;5048039;28;20467;-76
2023/10/21 10:02:12;;;;;;;2.17;1.60;;;24.20;63.90;;;;;;5034600;28;20500;-76
2023/10/21 10:04:41;;;;;;;1.50;1.17;;;24.20;63.80;;;;;;5058328;28;20444;-76
2023/10/21 10:07:12;;;;;;;1.73;1.47;;;24.20;63.90;;;;;;5045270;28;20453;-76
2023/10/21 10:09:57;;;;;;;1.00;0.93;;;24.20;63.80;;;;;;5049069;28;20448;-76
2023/10/21 10:12:31;;;;;;;1.57;1.43;;;24.20;63.70;;;;;;5049543;28;21017;-76
2023/10/21 10:15:00;;;;;;;5.33;1.60;;;24.20;63.70;;;;;;5051392;28;20477;-76
2023/10/21 10:17:47;;;;;;;1.30;1.20;;;24.30;63.60;;;;;;5046633;28;20466;-76
2023/10/21 10:20:21;;;;;;;1.93;1.13;;;24.30;63.60;;;;;;5040152;28;20549;-76
2023/10/21 10:22:56;;;;;;;1.80;1.17;;;24.30;63.50;;;;;;5054374;28;20473;-79
2023/10/21 10:25:27;;;;;;;1.00;0.90;;;24.30;63.60;;;;;;5060690;28;20456;-79
2023/10/21 10:28:04;;;;;;;1.30;1.10;;;24.30;63.50;;;;;;5041020;28;20460;-78
2023/10/21 10:30:33;;;;;;;1.37;0.80;;;24.20;63.50;;;;;;5045402;28;20516;-78
2023/10/21 10:33:12;;;;;;;1.07;1.07;;;24.20;63.50;;;;;;5048935;28;20453;-79
2023/10/21 10:35:46;;;;;;;1.37;1.27;;;24.20;63.40;;;;;;5040246;28;20517;-78
2023/10/21 10:38:24;;;;;;;2.40;1.10;;;24.20;63.30;;;;;;5059408;28;21080;-79
2023/10/21 10:40:59;;;;;;;1.43;1.30;;;24.20;63.40;;;;;;5032480;28;20455;-78
2023/10/21 10:43:29;;;;;;;1.20;1.10;;;24.20;63.40;;;;;;5068645;28;20455;-78
2023/10/21 10:45:57;;;;;;;0.90;0.90;;;24.20;63.40;;;;;;5040601;28;20462;-78
2023/10/21 10:48:26;;;;;;;1.17;1.17;;;24.20;63.40;;;;;;5042606;28;20464;-78
2023/10/21 10:50:58;;;;;;;1.50;1.37;;;24.20;63.40;;;;;;5048314;28;20451;-78
2023/10/21 10:53:28;;;;;;;0.90;0.90;;;24.20;63.50;;;;;;5045127;28;20490;-78
2023/10/21 10:55:56;;;;;;;1.67;1.30;;;24.20;63.50;;;;;;5049365;28;20944;-78
2023/10/21 10:58:27;;;;;;;1.10;1.00;;;24.20;63.50;;;;;;5047667;28;20449;-78
2023/10/21 11:00:56;;;;;;;2.33;1.27;;;24.20;63.50;;;;;;5046173;28;20487;-78
2023/10/21 11:03:27;;;;;;;1.07;0.97;;;24.20;63.50;;;;;;5045107;28;20515;-78
2023/10/21 11:05:57;;;;;;;1.67;1.00;;;24.20;63.50;;;;;;5041641;28;20464;-78
2023/10/21 11:08:29;;;;;;;2.43;1.73;;;24.20;63.60;;;;;;5044493;28;20458;-78
2023/10/21 11:11:04;;;;;;;1.43;1.00;;;24.20;63.60;;;;;;5044282;28;20460;-78
2023/10/21 11:13:33;;;;;;;1.10;1.10;;;24.20;63.70;;;;;;5038317;28;20550;-78
2023/10/21 11:16:04;;;;;;;1.27;1.17;;;24.20;63.80;;;;;;5047532;28;20446;-78
2023/10/21 11:18:34;;;;;;;1.83;1.00;;;24.20;63.70;;;;;;5052210;28;20454;-78
2023/10/21 11:21:03;;;;;;;2.30;1.00;;;24.20;63.70;;;;;;5058210;28;20495;-78
2023/10/21 11:23:32;;;;;;;1.20;1.00;;;24.30;63.70;;;;;;5046142;28;20457;-78
2023/10/21 11:26:02;;;;;;;1.70;0.87;;;24.30;63.60;;;;;;5048339;28;20490;-78
2023/10/21 11:28:33;;;;;;;1.13;1.00;;;24.30;63.50;;;;;;5052464;28;20450;-77
2023/10/21 11:31:02;;;;;;;0.90;0.90;;;24.30;63.40;;;;;;5048958;28;20487;-78
2023/10/21 11:33:30;;;;;;;0.80;0.80;;;24.40;63.30;;;;;;5048235;28;20508;-78
2023/10/21 11:35:59;;;;;;;2.70;1.50;;;24.40;63.40;;;;;;5051147;28;20453;-78
2023/10/21 11:38:28;;;;;;;1.00;1.00;;;24.40;63.30;;;;;;5048362;28;20455;-78
2023/10/21 11:41:00;;;;;;;1.47;1.10;;;24.40;63.40;;;;;;5057162;28;20538;-78
2023/10/21 11:43:28;;;;;;;2.40;0.93;;;24.40;63.30;;;;;;5043986;28;20565;-78
2023/10/21 11:45:58;;;;;;;1.40;0.80;;;24.40;63.20;;;;;;5042313;28;20467;-78
2023/10/21 11:48:27;;;;;;;1.00;1.00;;;24.40;63.20;;;;;;5064415;28;20955;-78
2023/10/21 11:50:56;;;;;;;1.30;1.20;;;24.40;63.20;;;;;;5052149;28;20487;-78
2023/10/21 11:53:26;;;;;;;1.00;1.00;;;24.40;63.30;;;;;;5038913;28;20451;-78
2023/10/21 11:56:51;;;;;;;0.97;0.97;;;24.40;63.20;;;;;;5052399;28;20440;-78
2023/10/21 12:13:24;;;;;;;1.20;1.10;;;24.30;63.30;;;;;;5037760;28;20522;-78
2023/10/21 12:16:28;;;;;;;3.37;1.20;;;24.30;63.40;;;;;;5044094;28;20463;-78
2023/10/21 12:38:48;;;;;;;1.60;1.00;;;24.30;63.90;;;;;;5027793;28;20474;-78
2023/10/21 12:41:16;;;;;;;2.47;1.60;;;24.30;63.90;;;;;;5038983;28;20511;-78
2023/10/21 12:43:48;;;;;;;1.00;0.87;;;24.30;63.90;;;;;;5035791;28;20482;-80
2023/10/21 12:46:17;;;;;;;1.43;0.90;;;24.30;63.90;;;;;;5038112;28;20976;-79
2023/10/21 12:48:51;;;;;;;1.43;1.10;;;24.30;63.80;;;;;;5049567;28;20471;-79
2023/10/21 12:51:21;;;;;;;1.03;0.90;;;24.30;63.80;;;;;;5041788;28;20539;-79
2023/10/21 12:53:50;;;;;;;1.03;0.73;;;24.30;63.80;;;;;;5041275;28;20559;-79
2023/10/21 12:56:27;;;;;;;1.20;0.80;;;24.30;63.70;;;;;;5044933;28;20540;-79
2023/10/21 12:58:56;;;;;;;1.43;1.03;;;24.30;63.60;;;;;;5038998;28;20545;-79
2023/10/21 13:01:24;;;;;;;1.77;1.00;;;24.30;63.60;;;;;;5043962;28;21079;-79
2023/10/21 13:03:56;;;;;;;1.37;1.10;;;24.20;63.70;;;;;;5047515;28;20527;-79
2023/10/21 13:06:25;;;;;;;0.90;0.90;;;24.20;63.70;;;;;;5049923;28;20447;-80
2023/10/21 13:08:55;;;;;;;1.20;1.10;;;24.20;63.70;;;;;;5048750;28;20470;-80
2023/10/21 13:11:24;;;;;;;0.80;0.80;;;24.20;63.70;;;;;;5047157;28;20469;-80
2023/10/21 13:13:56;;;;;;;1.10;1.00;;;24.20;63.80;;;;;;5036353;28;20458;-79
2023/10/21 13:16:26;;;;;;;1.57;1.10;;;24.20;63.70;;;;;;5041247;28;20712;-80
2023/10/21 13:18:56;;;;;;;1.20;1.10;;;24.20;63.80;;;;;;5048337;28;20502;-79
2023/10/21 13:21:24;;;;;;;1.90;1.03;;;24.20;63.80;;;;;;5040288;28;20980;-79
2023/10/21 13:23:53;;;;;;;1.17;1.07;;;24.20;63.90;;;;;;5043935;28;20579;-79
2023/10/21 13:26:21;;;;;;;2.10;1.40;;;24.20;63.90;;;;;;5045701;28;20521;-80
2023/10/21 13:28:51;;;;;;;1.10;1.00;;;24.20;64.00;;;;;;5039226;28;20469;-80
2023/10/21 13:31:19;;;;;;;1.20;1.10;;;24.20;64.00;;;;;;5039278;28;20451;-80
2023/10/21 13:33:47;;;;;;;3.13;1.20;;;24.20;64.10;;;;;;5037312;28;20931;-80
2023/10/21 13:36:16;;;;;;;1.20;0.83;;;24.10;64.00;;;;;;5050668;28;20458;-80